Time;durP1;ratioP1;P1;durP2;ratioP2;P2;SDS_P1;SDS_P2;PMS_P1;PMS_P2;Temp;Humidity;BMP_temperature;BMP_pressure;BME280_temperature;BME280_humidity;BME280_pressure;Samples;Min_cycle;Max_cycle;Signal;HPM_P1;HPM_P2
2021/10/09 00:00:12;;;;;;;0.40;0.20;;;8.90;99.90;;;;;;4991849;28;20374;-73
2021/10/09 00:02:38;;;;;;;0.40;0.20;;;8.80;99.90;;;;;;4993005;28;20725;-73
2021/10/09 00:05:05;;;;;;;0.40;0.30;;;9.60;99.90;;;;;;4992172;28;20405;-73
2021/10/09 00:07:31;;;;;;;0.40;0.22;;;8.80;99.90;;;;;;4992550;28;20422;-73
2021/10/09 00:10:03;;;;;;;0.70;0.70;;;8.70;99.90;;;;;;4992543;28;20796;-73
2021/10/09 00:12:29;;;;;;;0.40;0.30;;;8.90;99.90;;;;;;4992624;28;20398;-73
2021/10/09 00:14:55;;;;;;;0.40;0.22;;;8.70;99.90;;;;;;4992576;28;20387;-73
2021/10/09 00:17:23;;;;;;;0.40;0.30;;;8.70;99.90;;;;;;4991865;28;20397;-72
2021/10/09 00:19:49;;;;;;;0.40;0.30;;;8.60;99.90;;;;;;4992787;28;20406;-73
2021/10/09 00:22:15;;;;;;;2.20;0.60;;;8.50;99.90;;;;;;4991769;28;20379;-72
2021/10/09 00:24:40;;;;;;;0.40;0.30;;;8.50;99.90;;;;;;4992251;28;20786;-73
2021/10/09 00:27:06;;;;;;;0.50;0.50;;;8.40;99.90;;;;;;4991324;28;20430;-73
2021/10/09 00:29:31;;;;;;;0.40;0.40;;;8.20;99.90;;;;;;4992612;28;20383;-73
2021/10/09 00:31:57;;;;;;;3.20;1.10;;;9.50;99.90;;;;;;4992096;28;20394;-73
2021/10/09 00:34:23;;;;;;;1.60;0.60;;;8.60;99.90;;;;;;4991540;28;20390;-73
2021/10/09 00:36:48;;;;;;;0.40;0.30;;;8.50;99.90;;;;;;4992063;28;20398;-73
2021/10/09 00:39:14;;;;;;;0.40;0.30;;;8.60;99.90;;;;;;4991630;28;20387;-73
2021/10/09 00:41:39;;;;;;;0.40;0.30;;;8.60;99.90;;;;;;4992079;28;20434;-73
2021/10/09 00:44:10;;;;;;;0.40;0.20;;;8.40;99.90;;;;;;4991299;28;20739;-73
2021/10/09 00:46:38;;;;;;;0.43;0.32;;;8.20;99.90;;;;;;4991663;28;20858;-73
2021/10/09 00:49:03;;;;;;;0.70;0.50;;;8.20;99.90;;;;;;4991357;28;20481;-73
2021/10/09 00:51:29;;;;;;;0.40;0.30;;;8.10;99.90;;;;;;4991886;28;20816;-73
2021/10/09 00:53:57;;;;;;;0.40;0.20;;;8.40;99.90;;;;;;4974273;28;20398;-72
2021/10/09 00:56:22;;;;;;;0.40;0.30;;;7.80;99.90;;;;;;4991314;28;20465;-73
2021/10/09 00:58:48;;;;;;;0.40;0.20;;;8.70;99.90;;;;;;4991862;28;20394;-73
2021/10/09 01:01:14;;;;;;;0.40;0.20;;;8.10;99.90;;;;;;4991142;28;20787;-73
2021/10/09 01:03:40;;;;;;;0.40;0.33;;;8.10;99.90;;;;;;4991326;28;20387;-73
2021/10/09 01:06:06;;;;;;;0.40;0.20;;;8.00;99.90;;;;;;4990902;28;20414;-73
2021/10/09 01:08:31;;;;;;;1.07;0.93;;;8.00;99.90;;;;;;4991562;28;20744;-73
2021/10/09 01:10:57;;;;;;;0.40;0.30;;;7.90;99.90;;;;;;4991507;28;20819;-72
2021/10/09 01:13:22;;;;;;;0.40;0.20;;;8.10;99.90;;;;;;4990905;28;20387;-72
2021/10/09 01:15:48;;;;;;;0.90;0.60;;;8.10;99.90;;;;;;4991566;28;20378;-73
2021/10/09 01:18:20;;;;;;;0.40;0.20;;;8.00;99.90;;;;;;4991059;28;20848;-73
2021/10/09 01:21:03;;;;;;;1.00;0.70;;;7.80;99.90;;;;;;4991485;28;20378;-73
2021/10/09 01:23:29;;;;;;;0.40;0.20;;;7.80;99.90;;;;;;4991526;28;20748;-73
2021/10/09 01:25:55;;;;;;;0.40;0.20;;;8.20;99.90;;;;;;4991459;28;20433;-73
2021/10/09 01:28:21;;;;;;;0.40;0.20;;;7.80;99.90;;;;;;4990646;28;20403;-72
2021/10/09 01:30:47;;;;;;;0.90;0.90;;;7.70;99.90;;;;;;4991321;28;20729;-72
2021/10/09 01:33:14;;;;;;;0.40;0.22;;;7.60;99.90;;;;;;4990740;28;20409;-73
2021/10/09 01:35:52;;;;;;;2.90;1.20;;;8.30;99.90;;;;;;4991288;28;20391;-73
2021/10/09 01:38:19;;;;;;;0.80;0.80;;;7.80;99.90;;;;;;4990598;28;20393;-72
2021/10/09 01:40:45;;;;;;;0.50;0.50;;;7.70;99.90;;;;;;4990968;28;20521;-72
2021/10/09 01:43:13;;;;;;;0.40;0.30;;;7.90;99.90;;;;;;4990513;28;20479;-73
2021/10/09 01:45:41;;;;;;;0.50;0.50;;;7.70;99.90;;;;;;4980488;28;20527;-72
2021/10/09 01:48:07;;;;;;;0.40;0.40;;;7.80;99.90;;;;;;4971110;28;20396;-73
2021/10/09 01:50:32;;;;;;;0.40;0.20;;;7.60;99.90;;;;;;4971572;28;20394;-73
2021/10/09 01:52:59;;;;;;;0.40;0.30;;;8.30;99.90;;;;;;4971660;28;20463;-73
2021/10/09 01:55:25;;;;;;;0.40;0.20;;;7.80;99.90;;;;;;4970831;28;20404;-72
2021/10/09 01:57:50;;;;;;;0.40;0.37;;;7.70;99.90;;;;;;4971590;28;20917;-72
2021/10/09 02:00:16;;;;;;;0.50;0.50;;;7.50;99.90;;;;;;4971044;28;20404;-72
2021/10/09 02:02:42;;;;;;;0.40;0.30;;;7.30;99.90;;;;;;4971544;28;20400;-72
2021/10/09 02:05:07;;;;;;;2.20;1.60;;;8.20;99.90;;;;;;4971095;28;20380;-73
2021/10/09 02:07:34;;;;;;;0.40;0.30;;;7.60;99.90;;;;;;4971160;28;20466;-72
2021/10/09 02:10:00;;;;;;;0.40;0.20;;;7.60;99.90;;;;;;4971664;28;20442;-72
2021/10/09 02:12:27;;;;;;;0.40;0.30;;;7.90;99.90;;;;;;4970809;28;20432;-72
2021/10/09 02:26:03;;;;;;;0.40;0.20;;;7.40;99.90;;;;;;4931650;28;20419;-72
2021/10/09 02:28:29;;;;;;;0.40;0.30;;;7.40;99.90;;;;;;4953688;29;20418;-72
2021/10/09 02:30:55;;;;;;;1.20;0.70;;;7.70;99.90;;;;;;4955771;28;20448;-72
2021/10/09 02:33:21;;;;;;;0.40;0.30;;;6.60;99.90;;;;;;4955094;29;20894;-72
2021/10/09 02:35:47;;;;;;;0.40;0.30;;;7.30;99.90;;;;;;4955469;28;20390;-72
2021/10/09 02:38:14;;;;;;;0.40;0.30;;;7.40;99.90;;;;;;4954619;28;20823;-72
2021/10/09 02:40:42;;;;;;;0.90;0.90;;;6.80;99.90;;;;;;4955603;29;20812;-72
2021/10/09 02:43:08;;;;;;;0.40;0.30;;;7.50;99.90;;;;;;4954849;28;20473;-73
2021/10/09 02:45:34;;;;;;;0.40;0.20;;;7.10;99.90;;;;;;4955386;28;20394;-73
2021/10/09 02:48:02;;;;;;;0.60;0.60;;;6.70;99.90;;;;;;4955197;28;20815;-72
2021/10/09 02:50:28;;;;;;;0.50;0.50;;;7.00;99.90;;;;;;4954563;28;20505;-72
2021/10/09 02:52:54;;;;;;;0.70;0.70;;;7.10;99.90;;;;;;4954146;29;20821;-72
2021/10/09 02:55:20;;;;;;;0.40;0.30;;;6.90;99.90;;;;;;4954923;28;20489;-72
2021/10/09 02:57:47;;;;;;;0.40;0.20;;;7.10;99.90;;;;;;4955258;28;20775;-73
2021/10/09 03:00:14;;;;;;;0.40;0.40;;;6.90;99.90;;;;;;4953477;29;20882;-73
2021/10/09 03:02:39;;;;;;;0.40;0.30;;;6.90;99.90;;;;;;4955284;28;20394;-73
2021/10/09 03:05:06;;;;;;;0.50;0.50;;;6.60;99.90;;;;;;4955100;28;20386;-73
2021/10/09 03:07:32;;;;;;;0.60;0.55;;;6.90;99.90;;;;;;4954452;28;20685;-73
2021/10/09 03:09:58;;;;;;;0.90;0.60;;;7.00;99.90;;;;;;4953608;29;20412;-73
2021/10/09 03:12:24;;;;;;;0.40;0.20;;;6.90;99.90;;;;;;4954302;28;20480;-73
2021/10/09 03:14:50;;;;;;;0.75;0.65;;;7.60;99.90;;;;;;4954854;28;20398;-73
2021/10/09 03:17:16;;;;;;;0.40;0.30;;;7.20;99.90;;;;;;4954489;28;20413;-73
2021/10/09 03:19:41;;;;;;;3.20;0.90;;;6.80;99.90;;;;;;4955227;28;20484;-72
2021/10/09 03:22:07;;;;;;;0.40;0.40;;;6.90;99.90;;;;;;4955199;28;20385;-72
2021/10/09 03:24:33;;;;;;;0.70;0.60;;;7.40;99.90;;;;;;4953983;28;20496;-72
2021/10/09 03:26:59;;;;;;;1.20;0.60;;;6.70;99.90;;;;;;4957016;28;20450;-73
2021/10/09 03:29:25;;;;;;;0.40;0.40;;;6.70;99.90;;;;;;4973404;28;20461;-72
2021/10/09 03:31:50;;;;;;;0.50;0.50;;;7.70;99.90;;;;;;4973712;28;20388;-72
2021/10/09 03:34:16;;;;;;;0.40;0.30;;;6.90;99.90;;;;;;4972038;28;20447;-72
2021/10/09 03:36:42;;;;;;;0.40;0.20;;;6.70;99.90;;;;;;4973946;28;20384;-72
2021/10/09 03:39:11;;;;;;;0.70;0.70;;;6.70;99.90;;;;;;4973709;28;20384;-72
2021/10/09 03:41:40;;;;;;;0.40;0.30;;;7.10;99.90;;;;;;4973800;28;20393;-72
2021/10/09 03:44:05;;;;;;;0.40;0.40;;;6.60;99.90;;;;;;4973735;28;20384;-72
2021/10/09 03:46:38;;;;;;;1.50;1.40;;;6.40;99.90;;;;;;4990383;28;20817;-72
2021/10/09 03:54:14;;;;;;;0.40;0.30;;;7.00;99.90;;;;;;4992401;28;20382;-72
2021/10/09 03:56:40;;;;;;;0.40;0.30;;;6.00;99.90;;;;;;4975779;28;20394;-72
2021/10/09 03:59:05;;;;;;;0.40;0.30;;;6.00;99.90;;;;;;4992624;28;20457;-72
2021/10/09 04:01:32;;;;;;;0.40;0.20;;;6.90;99.90;;;;;;4992587;28;20504;-72
2021/10/09 04:03:58;;;;;;;0.40;0.30;;;6.40;99.90;;;;;;4993368;28;20386;-72
2021/10/09 04:06:23;;;;;;;0.70;0.70;;;6.60;99.90;;;;;;4992673;28;20875;-72
2021/10/09 04:08:49;;;;;;;0.40;0.30;;;6.40;99.90;;;;;;4993246;28;20390;-72
2021/10/09 04:11:15;;;;;;;0.40;0.20;;;6.40;99.90;;;;;;4992614;28;20421;-72
2021/10/09 04:13:40;;;;;;;0.60;0.43;;;6.60;99.90;;;;;;4993056;28;20390;-72
2021/10/09 04:16:06;;;;;;;0.40;0.20;;;6.30;99.90;;;;;;4993251;28;20751;-72
2021/10/09 04:18:32;;;;;;;0.50;0.30;;;6.40;99.90;;;;;;4992587;28;20804;-72
2021/10/09 04:20:57;;;;;;;0.40;0.20;;;7.10;99.90;;;;;;4975567;28;20413;-72
2021/10/09 04:23:23;;;;;;;1.00;1.00;;;6.10;99.90;;;;;;4975062;28;20426;-72
2021/10/09 04:25:49;;;;;;;0.60;0.40;;;6.50;99.90;;;;;;4992956;28;20398;-72
2021/10/09 04:28:14;;;;;;;0.40;0.30;;;6.00;99.90;;;;;;4992041;28;20417;-73
2021/10/09 04:30:40;;;;;;;0.40;0.30;;;6.70;99.90;;;;;;4992854;28;20895;-72
2021/10/09 04:33:06;;;;;;;0.43;0.43;;;6.20;99.90;;;;;;4992870;28;20418;-72
2021/10/09 04:35:31;;;;;;;0.40;0.20;;;6.20;99.90;;;;;;4992115;28;20382;-72
2021/10/09 04:37:57;;;;;;;0.70;0.70;;;6.30;99.90;;;;;;4992795;28;20395;-72
2021/10/09 04:40:23;;;;;;;0.40;0.20;;;6.50;99.90;;;;;;4992083;28;20390;-72
2021/10/09 04:42:49;;;;;;;0.43;0.43;;;6.10;99.90;;;;;;4992519;28;20855;-72
2021/10/09 04:45:14;;;;;;;0.40;0.30;;;6.10;99.90;;;;;;4984305;28;20397;-72
2021/10/09 04:47:40;;;;;;;0.60;0.40;;;6.00;99.90;;;;;;4972998;28;20830;-72
2021/10/09 04:50:06;;;;;;;0.40;0.30;;;7.00;99.90;;;;;;4973126;28;20419;-72
2021/10/09 04:52:32;;;;;;;1.10;1.00;;;6.10;99.90;;;;;;4972241;28;20483;-72
2021/10/09 04:54:57;;;;;;;0.50;0.50;;;6.20;99.90;;;;;;4972761;28;20439;-72
2021/10/09 04:57:23;;;;;;;0.40;0.30;;;6.10;99.90;;;;;;4972425;28;20443;-72
2021/10/09 04:59:50;;;;;;;0.40;0.30;;;5.80;99.90;;;;;;4972633;28;20400;-73
2021/10/09 05:02:16;;;;;;;0.40;0.40;;;5.80;99.90;;;;;;4972319;28;20899;-73
2021/10/09 05:04:42;;;;;;;0.90;0.50;;;5.50;99.90;;;;;;4977359;28;20499;-72
2021/10/09 05:07:07;;;;;;;0.40;0.20;;;5.50;99.90;;;;;;4990421;28;20793;-72
2021/10/09 05:09:33;;;;;;;0.80;0.80;;;5.90;99.90;;;;;;4988576;28;20903;-73
2021/10/09 05:11:58;;;;;;;0.40;0.40;;;6.10;99.90;;;;;;4987749;28;20786;-72
2021/10/09 05:14:24;;;;;;;0.40;0.30;;;6.30;99.90;;;;;;4985743;28;20406;-72
2021/10/09 05:16:50;;;;;;;0.40;0.20;;;6.10;99.90;;;;;;4988521;28;20394;-72
2021/10/09 05:19:16;;;;;;;2.60;0.90;;;5.80;99.90;;;;;;4987710;28;20399;-72
2021/10/09 05:21:41;;;;;;;1.00;1.00;;;6.20;99.90;;;;;;4989840;28;20476;-72
2021/10/09 05:24:07;;;;;;;0.40;0.20;;;5.90;99.90;;;;;;4986509;28;20395;-71
2021/10/09 05:26:36;;;;;;;0.40;0.20;;;6.70;99.90;;;;;;4988961;28;20471;-72
2021/10/09 05:29:01;;;;;;;0.40;0.20;;;6.00;99.90;;;;;;4987867;28;20536;-72
2021/10/09 05:31:30;;;;;;;0.40;0.40;;;5.30;99.90;;;;;;4987588;28;20750;-72
2021/10/09 05:33:57;;;;;;;0.40;0.20;;;5.50;99.90;;;;;;4986801;28;20384;-72
2021/10/09 05:36:24;;;;;;;0.40;0.40;;;6.10;99.90;;;;;;4988158;28;20868;-72
2021/10/09 05:38:50;;;;;;;0.60;0.50;;;5.60;99.90;;;;;;4988198;28;20413;-72
2021/10/09 05:41:17;;;;;;;0.70;0.50;;;6.10;99.90;;;;;;4986861;28;20500;-72
2021/10/09 05:43:45;;;;;;;0.40;0.20;;;6.40;99.90;;;;;;4986884;28;20896;-72
2021/10/09 05:46:10;;;;;;;0.40;0.20;;;5.70;99.90;;;;;;4987145;28;20921;-72
2021/10/09 05:48:38;;;;;;;0.50;0.50;;;6.00;99.90;;;;;;4991894;28;20390;-71
2021/10/09 06:48:29;;;;;;;0.40;0.40;;;6.20;99.90;;;;;;4994495;28;20421;-72
2021/10/09 07:01:34;;;;;;;0.40;0.20;;;6.80;99.90;;;;;;4993425;28;20479;-72
2021/10/09 07:04:00;;;;;;;0.40;0.20;;;6.70;99.90;;;;;;4994106;28;20806;-72
2021/10/09 07:06:25;;;;;;;0.40;0.20;;;7.00;99.90;;;;;;4993052;28;20424;-72
2021/10/09 07:08:51;;;;;;;1.00;0.90;;;7.00;99.90;;;;;;4993843;28;20395;-72
2021/10/09 07:11:16;;;;;;;0.40;0.20;;;7.10;99.90;;;;;;4993717;28;20799;-72
2021/10/09 07:13:42;;;;;;;0.40;0.30;;;6.80;99.90;;;;;;4993489;28;20391;-72
2021/10/09 07:16:09;;;;;;;0.40;0.28;;;7.10;99.90;;;;;;4993913;28;20525;-72
2021/10/09 07:18:34;;;;;;;0.40;0.20;;;7.40;99.90;;;;;;4993317;28;20736;-72
2021/10/09 07:21:00;;;;;;;0.80;0.50;;;7.70;99.90;;;;;;4994125;28;20398;-72
2021/10/09 07:23:27;;;;;;;0.40;0.20;;;7.40;99.90;;;;;;4993360;28;20473;-72
2021/10/09 07:25:52;;;;;;;0.50;0.50;;;7.60;99.90;;;;;;4993862;28;20529;-72
2021/10/09 07:28:18;;;;;;;0.40;0.20;;;7.70;99.90;;;;;;4993772;28;20493;-72
2021/10/09 07:30:44;;;;;;;0.40;0.32;;;7.80;99.90;;;;;;5006524;28;20398;-72
2021/10/09 07:33:12;;;;;;;0.40;0.40;;;8.00;99.90;;;;;;4993598;28;20430;-72
2021/10/09 07:35:38;;;;;;;0.40;0.40;;;8.10;99.90;;;;;;4993082;28;20397;-72
2021/10/09 07:38:04;;;;;;;0.40;0.30;;;8.30;99.90;;;;;;4993590;28;20418;-72
2021/10/09 07:40:29;;;;;;;1.50;0.90;;;8.30;99.90;;;;;;4992806;28;20484;-72
2021/10/09 07:42:55;;;;;;;0.90;0.90;;;8.60;99.90;;;;;;4993415;28;20405;-72
2021/10/09 07:45:21;;;;;;;1.00;0.90;;;8.90;99.90;;;;;;4985268;28;20427;-72
2021/10/09 07:47:46;;;;;;;0.40;0.40;;;8.70;99.90;;;;;;4986350;28;20505;-72
2021/10/09 07:50:13;;;;;;;0.70;0.70;;;8.90;99.90;;;;;;4993221;28;20391;-72
2021/10/09 07:52:41;;;;;;;0.98;0.88;;;8.80;99.90;;;;;;4992631;28;20387;-72
2021/10/09 07:55:08;;;;;;;0.40;0.20;;;8.80;99.90;;;;;;4993329;28;20398;-72
2021/10/09 07:57:34;;;;;;;0.40;0.30;;;8.90;99.90;;;;;;4992524;28;20806;-72
2021/10/09 08:00:00;;;;;;;0.60;0.60;;;9.10;99.90;;;;;;4993226;28;20382;-72
2021/10/09 08:02:26;;;;;;;0.40;0.30;;;8.90;99.90;;;;;;4992341;28;20399;-72
2021/10/09 08:04:51;;;;;;;0.40;0.40;;;9.50;99.90;;;;;;4993031;28;20394;-72
2021/10/09 08:07:17;;;;;;;0.40;0.30;;;9.20;99.90;;;;;;4992630;28;20509;-72
2021/10/09 08:09:43;;;;;;;0.80;0.80;;;9.20;99.90;;;;;;4992543;28;20383;-72
2021/10/09 08:12:08;;;;;;;0.40;0.20;;;9.30;99.90;;;;;;4975215;28;20394;-72
2021/10/09 08:14:34;;;;;;;0.40;0.40;;;9.40;99.90;;;;;;4992324;28;20400;-72
2021/10/09 08:17:00;;;;;;;3.20;0.90;;;9.30;99.90;;;;;;4992903;28;20545;-72
2021/10/09 08:19:25;;;;;;;0.40;0.30;;;9.50;99.90;;;;;;4991723;28;20883;-73
2021/10/09 08:21:52;;;;;;;1.30;1.20;;;9.50;99.90;;;;;;4992755;28;20724;-71
2021/10/09 08:24:45;;;;;;;4.50;1.10;;;9.80;99.90;;;;;;4992606;28;20477;-72
2021/10/09 08:27:18;;;;;;;0.40;0.30;;;9.90;99.90;;;;;;4991676;28;20525;-71
2021/10/09 08:40:56;;;;;;;0.40;0.20;;;10.40;99.90;;;;;;4988994;28;20436;-72
2021/10/09 08:43:22;;;;;;;0.40;0.30;;;10.70;99.90;;;;;;4992272;28;20391;-71
2021/10/09 08:45:48;;;;;;;0.40;0.30;;;10.50;99.90;;;;;;4974269;28;20418;-71
2021/10/09 08:48:16;;;;;;;0.40;0.20;;;10.80;99.90;;;;;;4992175;28;20401;-71
2021/10/09 08:50:43;;;;;;;0.70;0.60;;;10.60;99.90;;;;;;4991575;28;20430;-71
2021/10/09 08:53:11;;;;;;;0.47;0.38;;;10.80;99.90;;;;;;4992141;28;20387;-71
2021/10/09 08:55:43;;;;;;;0.40;0.20;;;10.80;99.90;;;;;;4991410;28;20863;-73
2021/10/09 08:58:10;;;;;;;0.40;0.20;;;10.90;99.90;;;;;;4986193;28;20513;-72
2021/10/09 09:04:14;;;;;;;0.40;0.40;;;11.00;99.90;;;;;;4978593;28;20424;-71
2021/10/09 09:32:15;;;;;;;1.40;1.27;;;11.50;99.90;;;;;;4986131;28;20426;-75
2021/10/09 09:37:42;;;;;;;0.80;0.80;;;11.70;99.90;;;;;;4985963;28;20406;-74
2021/10/09 09:40:13;;;;;;;0.40;0.30;;;11.70;99.90;;;;;;4988836;28;20406;-73
2021/10/09 09:42:47;;;;;;;0.70;0.60;;;11.70;99.90;;;;;;4987328;28;20401;-73
2021/10/09 09:45:23;;;;;;;0.40;0.30;;;11.80;99.90;;;;;;4987864;28;20395;-73
2021/10/09 09:47:53;;;;;;;0.77;0.65;;;11.90;99.90;;;;;;4984304;28;20511;-74
2021/10/09 09:50:19;;;;;;;0.40;0.20;;;11.90;99.90;;;;;;4988012;28;20395;-73
2021/10/09 09:52:45;;;;;;;0.40;0.28;;;12.00;99.90;;;;;;4987492;28;20418;-73
2021/10/09 09:55:14;;;;;;;0.60;0.50;;;12.10;99.90;;;;;;4989016;28;20402;-74
2021/10/09 09:57:40;;;;;;;0.40;0.30;;;12.00;99.90;;;;;;4984080;28;20894;-73
2021/10/09 10:00:12;;;;;;;0.40;0.30;;;12.30;99.90;;;;;;4985932;28;20394;-73
2021/10/09 10:02:50;;;;;;;0.40;0.30;;;12.30;99.90;;;;;;4985794;28;20389;-73
2021/10/09 10:05:16;;;;;;;0.40;0.30;;;12.10;99.90;;;;;;4988784;28;20504;-74
2021/10/09 10:07:42;;;;;;;2.40;1.40;;;12.20;99.90;;;;;;4985595;28;20518;-73
2021/10/09 10:10:09;;;;;;;0.40;0.30;;;12.40;99.90;;;;;;4987753;28;20803;-73
2021/10/09 10:12:37;;;;;;;0.43;0.32;;;12.50;99.90;;;;;;4985241;28;20398;-74
2021/10/09 10:15:04;;;;;;;0.80;0.80;;;12.60;99.90;;;;;;4988152;28;20747;-72
2021/10/09 10:17:47;;;;;;;3.50;0.90;;;12.70;99.90;;;;;;4985568;28;20461;-72
2021/10/09 10:20:23;;;;;;;0.60;0.60;;;12.80;99.90;;;;;;4988147;28;20396;-73
2021/10/09 10:22:54;;;;;;;0.60;0.60;;;12.70;99.90;;;;;;4987196;28;20429;-72
2021/10/09 10:25:34;;;;;;;0.50;0.40;;;13.00;99.90;;;;;;4988022;28;20414;-72
2021/10/09 10:28:08;;;;;;;1.80;0.80;;;13.00;99.90;;;;;;4985261;28;20944;-72
2021/10/09 10:30:42;;;;;;;2.08;0.68;;;13.10;99.90;;;;;;4987162;28;20414;-73
2021/10/09 10:33:07;;;;;;;1.10;1.10;;;13.30;99.90;;;;;;4969214;28;20770;-72
2021/10/09 10:35:33;;;;;;;0.40;0.40;;;13.20;99.90;;;;;;4988536;28;20401;-72
2021/10/09 10:38:02;;;;;;;0.40;0.20;;;13.20;99.90;;;;;;4983943;28;20930;-72
2021/10/09 10:40:54;;;;;;;0.40;0.20;;;13.30;99.90;;;;;;4986957;28;20451;-72
2021/10/09 10:47:01;;;;;;;0.50;0.50;;;13.70;99.90;;;;;;4990843;28;20404;-72
2021/10/09 10:49:22;;;;;;;0.40;0.30;;;14.00;99.90;;;;;;4976751;28;20977;-72
2021/10/09 10:54:34;;;;;;;0.40;0.20;;;14.30;99.90;;;;;;4989791;28;20410;-72
2021/10/09 10:57:01;;;;;;;0.40;0.20;;;14.50;99.90;;;;;;4988825;28;20406;-72
2021/10/09 10:59:46;;;;;;;0.40;0.20;;;14.60;99.90;;;;;;4985644;28;20397;-72
2021/10/09 11:02:17;;;;;;;0.75;0.73;;;15.00;99.90;;;;;;4990367;28;20401;-73
2021/10/09 11:04:54;;;;;;;0.40;0.30;;;14.70;99.90;;;;;;4989570;28;20492;-74
2021/10/09 11:07:36;;;;;;;0.40;0.40;;;15.60;99.90;;;;;;4988498;28;20457;-74
2021/10/09 11:10:07;;;;;;;0.50;0.50;;;16.40;99.90;;;;;;5004673;28;20389;-74
2021/10/09 11:12:41;;;;;;;0.40;0.20;;;16.90;99.80;;;;;;5012038;28;20401;-74
2021/10/09 11:15:14;;;;;;;0.40;0.30;;;17.80;96.70;;;;;;5012074;28;20385;-74
2021/10/09 11:17:42;;;;;;;0.40;0.20;;;18.40;94.50;;;;;;5011508;28;20396;-74
2021/10/09 11:20:10;;;;;;;0.80;0.50;;;18.50;93.90;;;;;;5012242;28;20841;-74
2021/10/09 11:22:46;;;;;;;0.40;0.20;;;17.80;91.50;;;;;;5011919;28;20533;-74
2021/10/09 11:25:32;;;;;;;0.40;0.30;;;18.90;92.00;;;;;;5012079;28;20749;-74
2021/10/09 11:28:00;;;;;;;0.40;0.20;;;18.30;90.20;;;;;;5011244;28;20467;-74
2021/10/09 11:30:27;;;;;;;0.40;0.30;;;18.80;92.60;;;;;;5012153;28;20385;-75
2021/10/09 11:32:54;;;;;;;0.40;0.30;;;19.20;90.90;;;;;;5011632;28;20377;-76
2021/10/09 11:35:34;;;;;;;0.40;0.28;;;19.90;90.00;;;;;;5013007;28;20384;-75
2021/10/09 11:38:02;;;;;;;0.40;0.27;;;18.60;91.80;;;;;;5012706;28;20730;-76
2021/10/09 11:40:29;;;;;;;0.40;0.20;;;19.50;91.80;;;;;;5013252;28;20734;-73
2021/10/09 11:42:58;;;;;;;0.40;0.30;;;18.70;89.60;;;;;;5012768;28;20404;-73
2021/10/09 11:56:30;;;;;;;0.40;0.30;;;20.80;87.30;;;;;;4993755;28;20402;-73
2021/10/09 11:59:02;;;;;;;0.40;0.22;;;20.20;90.30;;;;;;4992941;28;20389;-73
2021/10/09 12:01:36;;;;;;;0.40;0.30;;;19.90;86.00;;;;;;4984330;28;20431;-72
2021/10/09 12:04:20;;;;;;;0.40;0.30;;;19.90;85.60;;;;;;4985467;28;20877;-72
2021/10/09 12:09:58;;;;;;;0.40;0.30;;;19.60;89.20;;;;;;4980193;28;20491;-73
2021/10/09 12:12:34;;;;;;;0.40;0.20;;;19.20;87.30;;;;;;4973783;28;20447;-72
2021/10/09 12:15:00;;;;;;;0.40;0.30;;;19.90;87.10;;;;;;4973192;28;20384;-74
2021/10/09 12:17:37;;;;;;;0.40;0.30;;;19.80;87.80;;;;;;4979895;28;20473;-71
2021/10/09 12:20:08;;;;;;;0.40;0.30;;;20.30;87.10;;;;;;4981636;28;20435;-72
2021/10/09 12:22:45;;;;;;;0.40;0.20;;;18.40;91.70;;;;;;4973480;28;20454;-72
2021/10/09 12:25:26;;;;;;;0.40;0.30;;;19.20;91.00;;;;;;4973458;28;20427;-72
2021/10/09 12:27:59;;;;;;;0.40;0.20;;;19.30;90.10;;;;;;4972875;28;20893;-72
2021/10/09 12:30:54;;;;;;;0.40;0.30;;;19.20;92.10;;;;;;4973578;28;20396;-72
2021/10/09 12:33:34;;;;;;;0.50;0.50;;;19.00;91.50;;;;;;4963581;28;20408;-73
2021/10/09 12:36:27;;;;;;;0.40;0.30;;;18.60;91.10;;;;;;4972650;28;20384;-72
2021/10/09 12:38:53;;;;;;;0.88;0.85;;;19.10;91.00;;;;;;4972366;28;20868;-72
2021/10/09 12:41:18;;;;;;;0.40;0.30;;;19.00;89.80;;;;;;4973436;28;20383;-72
2021/10/09 12:43:44;;;;;;;0.43;0.43;;;18.80;91.40;;;;;;4972489;28;20393;-73
2021/10/09 12:46:09;;;;;;;0.40;0.30;;;18.70;91.30;;;;;;4987360;28;20387;-72
2021/10/09 12:48:36;;;;;;;0.40;0.30;;;17.80;93.00;;;;;;4992342;28;20390;-72
2021/10/09 12:51:01;;;;;;;0.40;0.20;;;18.30;93.00;;;;;;4991773;28;20665;-73
2021/10/09 12:53:27;;;;;;;0.40;0.30;;;18.10;92.40;;;;;;4992490;28;20719;-72
2021/10/09 12:55:52;;;;;;;0.40;0.30;;;18.30;93.90;;;;;;4991566;28;20401;-72
2021/10/09 12:58:19;;;;;;;0.40;0.20;;;18.80;92.00;;;;;;4991759;28;20399;-72
2021/10/09 13:00:47;;;;;;;0.40;0.20;;;18.60;91.30;;;;;;4970466;28;20450;-74
2021/10/09 13:03:12;;;;;;;0.80;0.80;;;19.40;91.50;;;;;;4971456;28;20946;-72
2021/10/09 13:05:38;;;;;;;0.50;0.50;;;19.60;92.90;;;;;;4991668;28;20386;-72
2021/10/09 13:08:05;;;;;;;0.40;0.30;;;19.50;90.90;;;;;;4990904;28;20492;-72
2021/10/09 13:10:38;;;;;;;0.40;0.20;;;19.60;90.30;;;;;;4991758;28;20386;-73
2021/10/09 13:13:04;;;;;;;0.40;0.30;;;18.40;92.00;;;;;;4990958;28;20417;-73
2021/10/09 13:15:30;;;;;;;0.40;0.20;;;18.20;92.80;;;;;;4991964;28;20425;-73
2021/10/09 13:17:56;;;;;;;0.40;0.30;;;19.10;91.50;;;;;;4973629;28;20386;-73
2021/10/09 13:20:25;;;;;;;0.40;0.30;;;18.70;91.50;;;;;;4991749;28;20744;-72
2021/10/09 13:22:50;;;;;;;0.40;0.30;;;18.80;91.60;;;;;;4991222;28;20387;-73
2021/10/09 13:25:16;;;;;;;0.40;0.30;;;18.90;92.80;;;;;;4991514;28;20485;-72
2021/10/09 13:27:41;;;;;;;0.40;0.30;;;18.60;92.20;;;;;;4991189;28;20434;-72
2021/10/09 13:30:07;;;;;;;0.50;0.50;;;18.70;91.50;;;;;;4984234;28;20390;-73
2021/10/09 13:32:33;;;;;;;0.40;0.20;;;19.20;92.10;;;;;;4983669;28;20749;-73
2021/10/09 13:34:59;;;;;;;0.50;0.50;;;19.20;94.10;;;;;;4981710;28;20384;-73
2021/10/09 13:37:26;;;;;;;0.40;0.30;;;18.80;91.50;;;;;;4982314;28;20496;-72
2021/10/09 13:39:53;;;;;;;0.40;0.30;;;18.80;91.80;;;;;;4977191;28;20391;-73
2021/10/09 13:42:19;;;;;;;0.40;0.30;;;18.80;91.40;;;;;;4979780;28;21005;-72
2021/10/09 13:44:45;;;;;;;0.40;0.30;;;19.50;92.30;;;;;;4988163;28;20404;-73
2021/10/09 13:47:11;;;;;;;0.40;0.30;;;19.00;91.40;;;;;;4971529;28;20768;-72
2021/10/09 13:49:46;;;;;;;2.37;0.83;;;19.20;92.90;;;;;;4972251;28;20452;-73
2021/10/09 13:52:12;;;;;;;0.40;0.30;;;19.20;92.40;;;;;;4972240;28;20451;-73
2021/10/09 13:54:38;;;;;;;0.40;0.20;;;19.40;91.10;;;;;;4974061;28;20400;-72
2021/10/09 13:57:03;;;;;;;0.40;0.30;;;19.20;91.80;;;;;;4981025;28;20394;-72
2021/10/09 13:59:29;;;;;;;0.50;0.40;;;18.60;92.70;;;;;;4991635;28;20872;-73
2021/10/09 14:01:56;;;;;;;0.70;0.60;;;19.00;92.50;;;;;;4990808;28;20403;-75
2021/10/09 14:04:22;;;;;;;0.43;0.38;;;19.00;91.90;;;;;;4972284;28;20411;-76
2021/10/09 14:06:48;;;;;;;0.40;0.20;;;18.70;91.60;;;;;;4971656;28;20451;-73
2021/10/09 14:09:13;;;;;;;0.40;0.30;;;18.80;92.10;;;;;;4977149;28;20429;-73
2021/10/09 14:11:39;;;;;;;0.40;0.30;;;18.80;92.00;;;;;;4992302;28;20482;-75
2021/10/09 14:14:04;;;;;;;0.40;0.20;;;18.90;91.90;;;;;;4991473;28;20394;-72
2021/10/09 14:16:30;;;;;;;0.50;0.40;;;18.60;92.70;;;;;;4991435;28;20386;-73
2021/10/09 14:18:56;;;;;;;0.40;0.30;;;18.40;92.80;;;;;;4993689;28;20393;-73
2021/10/09 14:21:21;;;;;;;0.40;0.30;;;18.70;93.20;;;;;;4995472;28;20740;-73
2021/10/09 14:23:47;;;;;;;0.40;0.20;;;18.60;92.60;;;;;;4995411;28;21489;-74
2021/10/09 14:26:13;;;;;;;0.80;0.50;;;18.80;92.90;;;;;;4995397;28;20759;-73
2021/10/09 14:28:39;;;;;;;0.70;0.60;;;18.80;92.30;;;;;;4994871;28;20418;-74
2021/10/09 14:31:04;;;;;;;0.50;0.50;;;18.40;92.60;;;;;;4994514;28;20378;-73
2021/10/09 14:33:30;;;;;;;0.40;0.20;;;18.70;92.80;;;;;;4995046;28;20395;-72
2021/10/09 14:35:58;;;;;;;0.70;0.70;;;18.80;92.40;;;;;;4992911;28;20481;-73
2021/10/09 14:38:23;;;;;;;0.40;0.30;;;19.00;91.60;;;;;;4995041;28;20382;-72
2021/10/09 14:40:49;;;;;;;0.50;0.50;;;18.80;91.70;;;;;;4994451;28;20390;-74
2021/10/09 14:43:15;;;;;;;0.40;0.30;;;18.90;92.20;;;;;;4994867;28;20418;-72
2021/10/09 14:45:42;;;;;;;0.40;0.20;;;19.30;93.00;;;;;;4994522;28;20387;-73
2021/10/09 14:48:15;;;;;;;0.45;0.45;;;19.50;90.80;;;;;;4994298;28;20414;-73
2021/10/09 14:53:33;;;;;;;0.40;0.30;;;18.60;91.80;;;;;;4994198;28;20987;-73
2021/10/09 15:20:25;;;;;;;0.47;0.40;;;19.30;93.60;;;;;;4989584;28;20481;-73
2021/10/09 15:22:50;;;;;;;0.40;0.20;;;19.30;94.50;;;;;;4990099;28;20460;-73
2021/10/09 15:25:16;;;;;;;0.40;0.30;;;19.00;96.00;;;;;;4987469;28;20881;-73
2021/10/09 15:27:42;;;;;;;0.50;0.40;;;18.90;94.60;;;;;;4990494;28;20496;-73
2021/10/09 15:30:08;;;;;;;0.40;0.30;;;18.40;96.60;;;;;;4989566;28;20879;-73
2021/10/09 15:32:33;;;;;;;0.40;0.30;;;18.70;95.40;;;;;;4989379;28;20425;-74
2021/10/09 15:35:00;;;;;;;0.40;0.30;;;18.70;95.60;;;;;;4988563;28;20386;-72
2021/10/09 15:37:26;;;;;;;0.40;0.20;;;18.40;97.00;;;;;;4988699;28;20399;-71
2021/10/09 15:39:51;;;;;;;0.40;0.20;;;17.90;98.20;;;;;;4972722;28;20906;-71
2021/10/09 15:42:17;;;;;;;0.40;0.20;;;18.00;97.80;;;;;;4991277;28;21467;-72
2021/10/09 15:44:44;;;;;;;0.40;0.30;;;17.80;99.00;;;;;;4990109;28;20404;-71
2021/10/09 15:47:09;;;;;;;0.60;0.37;;;18.40;97.70;;;;;;4987738;28;20416;-71
2021/10/09 15:49:35;;;;;;;0.40;0.20;;;18.70;97.50;;;;;;4988302;28;20750;-71